Haw River, North Carolina
Current Conditions -  °F | °C
As of 2:54 AM on Sunday 21 Dec 2014 (Local Time) from KBUY Reporting Station
Overcast Overcast  
Wind Chill: 37°   Ceiling: 2800
Heat Index: 37°   Visibility: 7mi
Dew Point: 34°   Wind: 0mph
Humidity: 89%   Direction: NA
Pressure: 30.26"   Gusts: NA
Location:  36.09°N, 79.36°W
Report Text: KBUY 210754Z AUTO 00000KT 7SM OVC028 03/01 A3026 RMK AO2 SLP250 T00280011
Loading
Personal Weather Stations






























Interactive Weather Map New forecast layout! Learn more

10-Day Weather Forecast

Advertisements
Track Severe Weather on mobile